Time;durP1;ratioP1;P1;durP2;ratioP2;P2;SDS_P1;SDS_P2;PMS_P1;PMS_P2;Temp;Humidity;BMP_temperature;BMP_pressure;BME280_temperature;BME280_humidity;BME280_pressure;Samples;Min_cycle;Max_cycle;Signal;HPM_P1;HPM_P2
2024/01/25 00:02:24;;;;;;;21.67;6.90;;;;;;;;;;5030112;28;20180;-72
2024/01/25 00:04:50;;;;;;;21.73;6.13;;;;;;;;;;5030772;28;20178;-73
2024/01/25 00:07:16;;;;;;;23.70;6.60;;;6.70;99.90;;;;;;5038743;28;20178;-72
2024/01/25 00:09:42;;;;;;;19.30;6.30;;;;;;;;;;5051141;28;20580;-72
2024/01/25 00:12:08;;;;;;;20.07;6.83;;;;;;;;;;5040338;28;20690;-72
2024/01/25 00:14:34;;;;;;;21.20;6.30;;;7.00;99.90;;;;;;5031107;28;20178;-72
2024/01/25 00:16:59;;;;;;;21.97;6.60;;;7.20;99.90;;;;;;5013256;28;20731;-72
2024/01/25 00:19:25;;;;;;;24.27;7.33;;;7.00;99.90;;;;;;5031136;28;20201;-72
2024/01/25 00:21:50;;;;;;;18.67;6.43;;;7.10;99.90;;;;;;5029755;28;20268;-72
2024/01/25 00:24:16;;;;;;;24.47;6.70;;;6.70;99.90;;;;;;5029566;28;20181;-72
2024/01/25 00:26:42;;;;;;;28.13;7.30;;;7.10;99.90;;;;;;5030958;28;20249;-73
2024/01/25 00:29:08;;;;;;;21.80;6.17;;;;;;;;;;5031031;28;20174;-72
2024/01/25 00:31:34;;;;;;;24.50;6.77;;;7.30;99.90;;;;;;5013112;28;20217;-72
2024/01/25 00:34:02;;;;;;;25.27;6.40;;;7.40;99.90;;;;;;5013383;28;20176;-72
2024/01/25 00:36:28;;;;;;;18.20;6.10;;;7.70;99.90;;;;;;5013306;28;20196;-72
2024/01/25 00:38:54;;;;;;;26.20;6.97;;;7.60;99.90;;;;;;5030988;28;20660;-72
2024/01/25 00:41:20;;;;;;;15.47;5.27;;;7.40;99.90;;;;;;5030915;28;20181;-72
2024/01/25 00:43:46;;;;;;;18.27;6.37;;;;;;;;;;5030983;28;20188;-72
2024/01/25 00:46:12;;;;;;;21.00;6.50;;;;;;;;;;5013379;28;20534;-72
2024/01/25 00:48:40;;;;;;;24.40;6.90;;;7.00;99.90;;;;;;5030874;28;20173;-72
2024/01/25 00:51:07;;;;;;;16.30;5.67;;;7.50;99.90;;;;;;5030823;28;20209;-72
2024/01/25 00:53:34;;;;;;;18.33;5.67;;;7.50;99.90;;;;;;5030978;28;20251;-72
2024/01/25 00:56:00;;;;;;;19.23;6.23;;;7.70;99.90;;;;;;5030814;28;20182;-72
2024/01/25 00:58:26;;;;;;;18.43;6.37;;;;;;;;;;5030864;28;20177;-72
2024/01/25 01:00:52;;;;;;;28.37;7.77;;;7.10;99.90;;;;;;5030954;28;20205;-72
2024/01/25 01:03:19;;;;;;;20.07;6.20;;;7.30;99.90;;;;;;5030720;28;20641;-72
2024/01/25 01:05:45;;;;;;;17.20;5.80;;;7.20;99.90;;;;;;5030717;28;20214;-72
2024/01/25 01:08:11;;;;;;;20.33;5.80;;;7.30;99.90;;;;;;5030794;28;20232;-72
2024/01/25 01:10:37;;;;;;;22.67;6.13;;;;;;;;;;5030897;28;20282;-72
2024/01/25 01:13:03;;;;;;;23.87;6.47;;;;;;;;;;5031980;28;20170;-72
2024/01/25 01:15:30;;;;;;;21.50;6.10;;;;;;;;;;5032385;28;20174;-72
2024/01/25 01:17:55;;;;;;;18.77;6.17;;;7.40;99.90;;;;;;5029578;28;20701;-72
2024/01/25 01:20:21;;;;;;;22.40;6.40;;;7.60;99.90;;;;;;5030699;28;20249;-72
2024/01/25 01:22:46;;;;;;;17.23;5.77;;;7.50;99.90;;;;;;5030578;28;20657;-72
2024/01/25 01:25:13;;;;;;;18.77;6.20;;;;;;;;;;5030735;28;20162;-72
2024/01/25 01:27:38;;;;;;;23.23;6.70;;;7.70;99.90;;;;;;5033796;28;20174;-72
2024/01/25 01:30:04;;;;;;;21.50;6.00;;;7.50;99.90;;;;;;5034305;28;20165;-72
2024/01/25 01:32:30;;;;;;;20.83;6.50;;;;;;;;;;5016503;28;20174;-72
2024/01/25 01:34:56;;;;;;;16.00;4.87;;;7.50;99.90;;;;;;5034395;28;20231;-72
2024/01/25 01:37:22;;;;;;;17.17;5.63;;;7.50;99.90;;;;;;5034176;28;20660;-72
2024/01/25 01:39:47;;;;;;;19.37;5.93;;;7.50;99.90;;;;;;5034245;28;20621;-72
2024/01/25 01:42:13;;;;;;;15.33;5.33;;;;;;;;;;5034184;28;20173;-72
2024/01/25 01:44:39;;;;;;;20.20;6.07;;;7.10;99.90;;;;;;5032826;28;20243;-72
2024/01/25 01:47:05;;;;;;;17.83;5.73;;;7.80;99.90;;;;;;5034133;28;20669;-72
2024/01/25 01:49:31;;;;;;;18.70;6.07;;;;;;;;;;5034164;28;20169;-72
2024/01/25 01:51:57;;;;;;;22.30;6.40;;;;;;;;;;5033882;28;20206;-72
2024/01/25 01:54:24;;;;;;;22.53;6.20;;;7.60;99.90;;;;;;5033985;28;20257;-72
2024/01/25 01:56:50;;;;;;;24.07;6.53;;;;;;;;;;5033899;28;20174;-72
2024/01/25 01:59:16;;;;;;;20.87;6.03;;;7.70;99.90;;;;;;5033912;28;20229;-72
2024/01/25 02:01:43;;;;;;;14.17;5.33;;;;;;;;;;5033959;28;20174;-72
2024/01/25 02:04:08;;;;;;;17.80;5.80;;;7.80;99.90;;;;;;5033701;28;20608;-72
2024/01/25 02:06:34;;;;;;;19.37;6.27;;;7.50;99.90;;;;;;5033808;28;20249;-72
2024/01/25 02:09:00;;;;;;;18.13;5.67;;;7.80;99.90;;;;;;5033874;28;20205;-72
2024/01/25 02:11:26;;;;;;;23.43;6.20;;;7.50;99.90;;;;;;5033578;28;20232;-72
2024/01/25 02:13:52;;;;;;;16.57;5.80;;;;;;;;;;5015908;28;20205;-72
2024/01/25 02:16:19;;;;;;;23.97;6.77;;;7.80;99.90;;;;;;5033588;28;20170;-72
2024/01/25 02:18:46;;;;;;;19.63;5.80;;;;;;;;;;5033634;28;20238;-72
2024/01/25 02:21:12;;;;;;;20.43;5.73;;;7.80;99.90;;;;;;5036072;28;20188;-72
2024/01/25 02:23:38;;;;;;;25.20;6.30;;;7.90;99.90;;;;;;5049088;28;20177;-72
2024/01/25 02:26:04;;;;;;;18.13;5.30;;;7.70;99.90;;;;;;5050622;28;20730;-73
2024/01/25 02:28:30;;;;;;;18.60;5.67;;;;;;;;;;5033118;28;20641;-72
2024/01/25 02:30:56;;;;;;;21.30;5.70;;;;;;;;;;5033032;28;20213;-72
2024/01/25 02:33:21;;;;;;;17.07;5.67;;;7.80;99.90;;;;;;5032998;28;20189;-72
2024/01/25 02:35:47;;;;;;;19.37;5.60;;;7.90;99.90;;;;;;5032951;28;20664;-72
2024/01/25 02:38:13;;;;;;;24.70;5.83;;;;;;;;;;5034968;28;20174;-71
2024/01/25 02:40:39;;;;;;;22.83;5.50;;;7.80;99.90;;;;;;5052710;28;20178;-72
2024/01/25 02:43:05;;;;;;;23.60;5.80;;;;;;;;;;5052852;28;20181;-71
2024/01/25 02:45:31;;;;;;;17.17;5.00;;;7.80;99.90;;;;;;5052834;28;20177;-71
2024/01/25 02:47:57;;;;;;;24.23;5.93;;;;;;;;;;5052707;28;20640;-73
2024/01/25 02:50:23;;;;;;;16.80;5.23;;;8.10;99.90;;;;;;5052520;28;20173;-71
2024/01/25 02:52:49;;;;;;;19.47;5.13;;;;;;;;;;5052633;28;20171;-71
2024/01/25 02:55:18;;;;;;;19.20;5.47;;;8.30;99.90;;;;;;5052758;28;20184;-71
2024/01/25 02:57:44;;;;;;;23.70;5.50;;;;;;;;;;5052743;28;20177;-71
2024/01/25 03:00:10;;;;;;;20.70;5.03;;;8.10;99.90;;;;;;5034678;28;20264;-71
2024/01/25 03:02:35;;;;;;;18.37;4.93;;;8.40;99.90;;;;;;5052699;28;20286;-72
2024/01/25 03:05:01;;;;;;;22.13;5.27;;;8.40;99.90;;;;;;5052711;28;20564;-73
2024/01/25 03:07:27;;;;;;;16.37;4.33;;;;;;;;;;5052813;28;20260;-73
2024/01/25 03:09:53;;;;;;;20.87;4.63;;;;;;;;;;5052613;28;20652;-74
2024/01/25 03:12:19;;;;;;;14.30;4.00;;;8.50;99.90;;;;;;5052420;28;20255;-74
2024/01/25 03:14:45;;;;;;;13.90;3.83;;;8.40;99.90;;;;;;5052373;28;20253;-73
2024/01/25 03:17:12;;;;;;;14.90;3.93;;;8.50;99.90;;;;;;5052261;28;20307;-74
2024/01/25 03:19:38;;;;;;;13.23;3.47;;;;;;;;;;5052301;28;20173;-74
2024/01/25 03:22:04;;;;;;;12.57;3.67;;;8.50;99.90;;;;;;5052266;28;20173;-73
2024/01/25 03:24:30;;;;;;;15.00;3.70;;;;;;;;;;5052136;28;20655;-73
2024/01/25 03:26:56;;;;;;;13.70;3.70;;;;;;;;;;5052197;28;20599;-73
2024/01/25 03:29:22;;;;;;;11.93;3.33;;;;;;;;;;5031301;28;20711;-73
2024/01/25 03:31:47;;;;;;;12.70;3.80;;;8.20;99.90;;;;;;5051974;28;20295;-73
2024/01/25 03:34:13;;;;;;;11.87;3.50;;;;;;;;;;5052041;28;20256;-73
2024/01/25 03:36:40;;;;;;;15.43;3.83;;;8.00;99.90;;;;;;5051895;28;20180;-73
2024/01/25 03:39:07;;;;;;;14.00;3.63;;;8.10;99.90;;;;;;5051896;28;20643;-73
2024/01/25 03:41:33;;;;;;;15.93;4.17;;;;;;;;;;5051793;28;20241;-73
2024/01/25 03:43:59;;;;;;;13.50;3.60;;;;;;;;;;5051887;28;20639;-73
2024/01/25 03:46:24;;;;;;;11.90;3.20;;;8.20;99.90;;;;;;5051737;28;20251;-73
2024/01/25 03:48:50;;;;;;;16.83;4.37;;;8.00;99.90;;;;;;5051171;28;20268;-73
2024/01/25 03:51:16;;;;;;;16.20;3.97;;;8.10;99.90;;;;;;5051647;28;20287;-73
2024/01/25 03:53:42;;;;;;;9.20;2.93;;;8.20;99.90;;;;;;5051636;28;20187;-73
2024/01/25 03:56:12;;;;;;;14.00;3.73;;;8.20;99.90;;;;;;5051587;28;20227;-72
2024/01/25 03:58:38;;;;;;;12.40;2.87;;;8.40;99.90;;;;;;5051464;28;20666;-72
2024/01/25 04:01:04;;;;;;;7.03;2.43;;;;;;;;;;5051373;28;20181;-72
2024/01/25 04:03:30;;;;;;;12.97;3.50;;;;;;;;;;5051312;28;20235;-72
2024/01/25 04:05:56;;;;;;;12.37;3.03;;;8.60;99.90;;;;;;5051499;28;20244;-73
2024/01/25 04:08:22;;;;;;;9.30;2.67;;;;;;;;;;5051392;28;20255;-72
2024/01/25 04:10:47;;;;;;;11.47;2.90;;;8.60;99.90;;;;;;5051424;28;20292;-72
2024/01/25 04:13:13;;;;;;;13.37;3.30;;;;;;;;;;5033399;28;20578;-72
2024/01/25 04:15:39;;;;;;;9.83;2.73;;;8.60;99.90;;;;;;5051282;28;20234;-72
2024/01/25 04:18:05;;;;;;;7.07;2.50;;;;;;;;;;5051261;28;20703;-72
2024/01/25 04:20:34;;;;;;;10.20;2.90;;;8.30;99.90;;;;;;5051125;28;20165;-72
2024/01/25 04:22:59;;;;;;;11.40;3.57;;;8.60;99.90;;;;;;5051143;28;20315;-72
2024/01/25 04:25:25;;;;;;;10.77;2.80;;;8.60;99.90;;;;;;5033238;28;20256;-72
2024/01/25 04:27:51;;;;;;;11.53;3.20;;;;;;;;;;5051116;28;20634;-72
2024/01/25 04:30:17;;;;;;;12.70;3.30;;;8.70;99.90;;;;;;5050955;28;20180;-72
2024/01/25 04:32:43;;;;;;;9.13;2.93;;;;;;;;;;5051029;28;20176;-72
2024/01/25 04:35:09;;;;;;;10.70;2.87;;;8.50;99.90;;;;;;5047027;28;20207;-72
2024/01/25 04:37:36;;;;;;;12.53;3.37;;;;;;;;;;5041203;28;20268;-72
2024/01/25 04:40:01;;;;;;;9.80;2.90;;;8.30;99.90;;;;;;5050823;28;20684;-72
2024/01/25 04:42:27;;;;;;;8.60;2.83;;;;;;;;;;5033669;28;20264;-72
2024/01/25 04:44:54;;;;;;;7.10;2.43;;;;;;;;;;5030859;28;20170;-72
2024/01/25 04:47:19;;;;;;;2.50;1.30;;;9.40;99.90;;;;;;5029930;28;20260;-73
2024/01/25 04:49:45;;;;;;;1.47;1.00;;;;;;;;;;5029403;28;20585;-72
2024/01/25 04:52:11;;;;;;;2.47;1.00;;;;;;;;;;5030677;28;20279;-72
2024/01/25 04:54:37;;;;;;;1.67;0.87;;;;;;;;;;5047528;28;20652;-74
2024/01/25 04:57:06;;;;;;;2.50;1.00;;;9.70;99.90;;;;;;5050632;28;20235;-71
2024/01/25 04:59:34;;;;;;;1.87;0.93;;;9.70;99.90;;;;;;5050614;28;20211;-71
2024/01/25 05:02:00;;;;;;;2.70;0.90;;;;;;;;;;5052716;28;20668;-72
2024/01/25 05:04:29;;;;;;;1.43;0.90;;;10.00;99.90;;;;;;5054769;28;20217;-72
2024/01/25 05:06:55;;;;;;;3.13;1.10;;;;;;;;;;5054861;28;20181;-72
2024/01/25 05:09:21;;;;;;;1.83;0.83;;;9.80;99.90;;;;;;5054824;28;20165;-72
2024/01/25 05:11:47;;;;;;;1.03;0.60;;;;;;;;;;5054649;28;20224;-72
2024/01/25 05:14:13;;;;;;;0.83;0.60;;;9.80;99.90;;;;;;5054627;28;20178;-71
2024/01/25 05:16:39;;;;;;;0.87;0.60;;;;;;;;;;5054722;28;20169;-72
2024/01/25 05:19:05;;;;;;;1.83;0.70;;;10.00;99.90;;;;;;5054527;28;20161;-71
2024/01/25 05:21:31;;;;;;;1.87;0.70;;;;;;;;;;5054533;28;20222;-72
2024/01/25 05:23:57;;;;;;;0.60;0.50;;;;;;;;;;5036536;28;20173;-72
2024/01/25 05:26:23;;;;;;;0.40;0.40;;;9.70;99.90;;;;;;5054352;28;20176;-72
2024/01/25 05:28:48;;;;;;;0.60;0.43;;;9.60;99.90;;;;;;5054420;28;20169;-72
2024/01/25 05:31:16;;;;;;;0.90;0.47;;;;;;;;;;5054284;28;20208;-72
2024/01/25 05:33:42;;;;;;;0.87;0.53;;;9.80;99.90;;;;;;5036519;28;20181;-73
2024/01/25 05:36:09;;;;;;;0.40;0.40;;;10.00;99.90;;;;;;5054506;28;20185;-71
2024/01/25 05:38:35;;;;;;;0.60;0.40;;;10.20;99.90;;;;;;5054820;28;20624;-71
2024/01/25 05:41:01;;;;;;;0.50;0.50;;;;;;;;;;5054174;28;20172;-71
2024/01/25 05:43:26;;;;;;;0.30;0.30;;;10.10;99.90;;;;;;5054148;28;20208;-71
2024/01/25 05:45:52;;;;;;;0.20;0.20;;;;;;;;;;5036329;28;20200;-71
2024/01/25 05:48:18;;;;;;;0.33;0.33;;;10.30;99.90;;;;;;5033940;28;20181;-71
2024/01/25 05:50:44;;;;;;;0.30;0.30;;;;;;;;;;5053922;28;20200;-71
2024/01/25 05:53:10;;;;;;;0.30;0.30;;;10.40;99.90;;;;;;5054023;28;20222;-71
2024/01/25 05:55:36;;;;;;;0.30;0.30;;;10.40;99.90;;;;;;5053909;28;20660;-71
2024/01/25 05:58:02;;;;;;;0.93;0.40;;;10.70;99.90;;;;;;5053786;28;20204;-71
2024/01/25 06:00:28;;;;;;;0.30;0.30;;;;;;;;;;5035924;28;20687;-71
2024/01/25 06:02:54;;;;;;;0.77;0.50;;;10.60;99.90;;;;;;5053503;28;20259;-71
2024/01/25 06:05:20;;;;;;;0.30;0.30;;;;;;;;;;5053654;28;20201;-71
2024/01/25 06:07:46;;;;;;;0.47;0.30;;;10.70;99.90;;;;;;5053765;28;20204;-71
2024/01/25 06:10:12;;;;;;;0.30;0.30;;;10.30;99.90;;;;;;5053512;28;20169;-71
2024/01/25 06:12:38;;;;;;;0.30;0.30;;;10.60;99.90;;;;;;5053255;28;20220;-71
2024/01/25 06:15:04;;;;;;;0.20;0.20;;;10.40;99.90;;;;;;5053561;28;20537;-71
2024/01/25 06:17:31;;;;;;;0.20;0.20;;;10.60;99.90;;;;;;5053581;28;20268;-71
2024/01/25 06:19:57;;;;;;;0.40;0.20;;;10.60;99.90;;;;;;5053414;28;20221;-71
2024/01/25 06:22:23;;;;;;;0.20;0.20;;;;;;;;;;5053339;28;20262;-71
2024/01/25 06:24:49;;;;;;;0.40;0.30;;;;;;;;;;5053295;28;20177;-71
2024/01/25 06:27:15;;;;;;;0.77;0.30;;;;;;;;;;5053345;28;20692;-71
2024/01/25 06:29:40;;;;;;;0.30;0.30;;;10.80;99.90;;;;;;5053158;28;20177;-71
2024/01/25 06:32:06;;;;;;;0.67;0.40;;;10.80;99.90;;;;;;5053123;28;20209;-71
2024/01/25 06:34:32;;;;;;;0.40;0.30;;;10.50;99.90;;;;;;5053210;28;20892;-72
2024/01/25 06:36:58;;;;;;;0.90;0.40;;;;;;;;;;5053010;28;20181;-71
2024/01/25 06:39:24;;;;;;;0.40;0.40;;;10.80;99.90;;;;;;5052920;28;20173;-71
2024/01/25 06:41:50;;;;;;;0.50;0.50;;;;;;;;;;5035007;28;20268;-71
2024/01/25 06:44:17;;;;;;;1.37;0.50;;;11.00;99.90;;;;;;5052938;28;20789;-71
2024/01/25 06:46:43;;;;;;;1.23;0.60;;;;;;;;;;5053062;28;20177;-71
2024/01/25 06:49:09;;;;;;;0.67;0.57;;;;;;;;;;5053000;28;20273;-73
2024/01/25 06:51:35;;;;;;;1.47;0.70;;;;;;;;;;5052795;28;20291;-74
2024/01/25 06:54:01;;;;;;;0.63;0.63;;;;;;;;;;5025062;28;20708;-74
2024/01/25 06:56:27;;;;;;;1.07;0.70;;;10.70;99.90;;;;;;5049679;28;20268;-72
2024/01/25 06:58:53;;;;;;;0.60;0.60;;;;;;;;;;5048715;28;20261;-71
2024/01/25 07:01:22;;;;;;;0.73;0.60;;;10.60;99.90;;;;;;5032542;28;20197;-72
2024/01/25 07:03:50;;;;;;;0.77;0.60;;;10.70;99.90;;;;;;5032316;28;20651;-72
2024/01/25 07:06:19;;;;;;;1.30;0.80;;;10.80;99.90;;;;;;5032651;28;20256;-71
2024/01/25 07:08:46;;;;;;;1.90;0.80;;;11.40;99.90;;;;;;5032348;28;20177;-72
2024/01/25 07:11:12;;;;;;;0.87;0.70;;;10.80;99.90;;;;;;5037017;28;20208;-72
2024/01/25 07:13:38;;;;;;;1.43;0.77;;;;;;;;;;5052122;28;20221;-71
2024/01/25 07:16:04;;;;;;;0.70;0.70;;;;;;;;;;5052151;28;20226;-74
2024/01/25 07:18:30;;;;;;;1.53;0.70;;;11.00;99.90;;;;;;5052166;28;20176;-71
2024/01/25 07:20:55;;;;;;;1.87;0.80;;;10.90;99.90;;;;;;5034208;28;20173;-71
2024/01/25 07:23:22;;;;;;;1.17;0.80;;;11.10;99.90;;;;;;5051501;28;20261;-71
2024/01/25 07:25:48;;;;;;;1.53;0.77;;;;;;;;;;5051740;28;20254;-75
2024/01/25 07:28:14;;;;;;;1.57;0.90;;;;;;;;;;5034183;28;20250;-72
2024/01/25 07:30:40;;;;;;;1.97;0.90;;;;;;;;;;5051941;28;20197;-72
2024/01/25 07:33:06;;;;;;;2.40;0.90;;;10.60;99.90;;;;;;5052042;28;20174;-72
2024/01/25 07:35:32;;;;;;;1.70;0.87;;;10.70;99.90;;;;;;5051885;28;20525;-72
2024/01/25 07:37:58;;;;;;;3.07;1.00;;;10.70;99.90;;;;;;5034044;28;20219;-72
2024/01/25 07:40:23;;;;;;;3.33;1.00;;;10.80;99.90;;;;;;5052085;28;20169;-71
2024/01/25 07:42:49;;;;;;;2.97;1.00;;;;;;;;;;5033897;28;20663;-72
2024/01/25 07:45:15;;;;;;;3.50;1.10;;;;;;;;;;5051648;28;20639;-71
2024/01/25 07:47:42;;;;;;;5.53;1.53;;;11.10;99.90;;;;;;5048921;28;20169;-72
2024/01/25 07:50:08;;;;;;;2.43;1.00;;;11.20;99.90;;;;;;5031754;28;20170;-71
2024/01/25 07:52:34;;;;;;;2.57;1.10;;;;;;;;;;5031382;28;20291;-73
2024/01/25 07:54:59;;;;;;;2.77;1.20;;;11.60;99.90;;;;;;5031756;28;20166;-72
2024/01/25 07:57:25;;;;;;;1.60;1.07;;;11.00;99.90;;;;;;5031642;28;20173;-72
2024/01/25 07:59:51;;;;;;;2.80;1.10;;;;;;;;;;5031531;28;20166;-71
2024/01/25 08:02:17;;;;;;;3.03;1.10;;;11.00;99.90;;;;;;5031435;28;20629;-71
2024/01/25 08:04:43;;;;;;;4.87;1.43;;;;;;;;;;5034394;28;20182;-71
2024/01/25 08:07:09;;;;;;;2.63;0.90;;;10.80;99.90;;;;;;5030425;28;20182;-71
2024/01/25 08:09:34;;;;;;;4.30;1.17;;;11.00;99.90;;;;;;5031538;28;20176;-72
2024/01/25 08:12:00;;;;;;;3.30;1.10;;;11.00;99.90;;;;;;5031418;28;20296;-72
2024/01/25 08:14:26;;;;;;;2.87;1.13;;;10.70;99.90;;;;;;5031405;28;20209;-71
2024/01/25 08:16:52;;;;;;;2.00;0.80;;;;;;;;;;5030164;28;20176;-73
2024/01/25 08:19:17;;;;;;;2.93;0.83;;;11.00;99.90;;;;;;5031221;28;20170;-72
2024/01/25 08:21:43;;;;;;;3.47;1.00;;;;;;;;;;5031342;28;20587;-72
2024/01/25 08:24:10;;;;;;;1.33;0.63;;;;;;;;;;5031196;28;20170;-73
2024/01/25 08:26:36;;;;;;;1.80;0.90;;;;;;;;;;5031152;28;20724;-72
2024/01/25 08:29:01;;;;;;;3.37;1.10;;;10.90;99.90;;;;;;5031111;28;20190;-72
2024/01/25 08:31:27;;;;;;;2.00;0.83;;;;;;;;;;5030943;28;20288;-72
2024/01/25 08:33:53;;;;;;;1.57;0.70;;;10.70;99.90;;;;;;5031100;28;20184;-72
2024/01/25 08:36:19;;;;;;;1.60;0.70;;;10.90;99.90;;;;;;5030981;28;20215;-72
2024/01/25 08:38:45;;;;;;;1.53;0.70;;;11.20;99.90;;;;;;5031021;28;20544;-73
2024/01/25 08:41:11;;;;;;;1.50;0.70;;;10.90;99.90;;;;;;5030999;28;20212;-73
2024/01/25 08:43:37;;;;;;;3.27;1.13;;;10.90;99.90;;;;;;5030618;28;20672;-72
2024/01/25 08:46:03;;;;;;;1.53;0.80;;;10.80;99.90;;;;;;5030864;28;20166;-72
2024/01/25 08:48:29;;;;;;;2.33;1.03;;;;;;;;;;5013168;28;20181;-72
2024/01/25 08:50:55;;;;;;;2.30;0.90;;;;;;;;;;5030801;28;20295;-72
2024/01/25 08:53:22;;;;;;;2.27;0.87;;;10.80;99.90;;;;;;5030719;28;20174;-72
2024/01/25 08:55:48;;;;;;;2.47;0.90;;;10.70;99.90;;;;;;5030696;28;20178;-73
2024/01/25 08:58:14;;;;;;;1.33;0.90;;;10.90;99.90;;;;;;5030826;28;20249;-72
2024/01/25 09:00:39;;;;;;;2.57;1.00;;;11.00;99.90;;;;;;5030821;28;20224;-72
2024/01/25 09:03:06;;;;;;;2.93;1.10;;;10.90;99.90;;;;;;5012916;28;20334;-71
2024/01/25 09:05:34;;;;;;;0.73;0.60;;;;;;;;;;5030752;28;20205;-71
2024/01/25 09:08:00;;;;;;;2.27;0.80;;;10.80;99.90;;;;;;5030637;28;20174;-72
2024/01/25 09:10:26;;;;;;;2.03;0.70;;;;;;;;;;5033884;28;20659;-72
2024/01/25 09:12:51;;;;;;;2.00;0.70;;;10.70;99.90;;;;;;5050387;28;20201;-71
2024/01/25 09:15:18;;;;;;;1.50;0.80;;;;;;;;;;5043104;28;20635;-72
2024/01/25 09:17:45;;;;;;;1.57;0.70;;;;;;;;;;5029251;28;20206;-71
2024/01/25 09:20:10;;;;;;;1.97;0.67;;;10.80;99.90;;;;;;5030560;28;20185;-71
2024/01/25 09:22:37;;;;;;;1.67;0.50;;;;;;;;;;5030409;28;20644;-71
2024/01/25 09:25:03;;;;;;;2.50;0.70;;;;;;;;;;5030220;28;20308;-71
2024/01/25 09:27:29;;;;;;;1.83;0.50;;;;;;;;;;5037805;28;20177;-72
2024/01/25 09:29:55;;;;;;;2.70;0.83;;;10.80;99.90;;;;;;5032324;28;20658;-71
2024/01/25 09:32:21;;;;;;;0.93;0.50;;;;;;;;;;5050070;28;20211;-71
2024/01/25 09:34:47;;;;;;;1.10;0.40;;;;;;;;;;5050080;28;20219;-72
2024/01/25 09:37:14;;;;;;;1.37;0.50;;;10.70;99.90;;;;;;5050263;28;20535;-71
2024/01/25 09:39:40;;;;;;;0.60;0.30;;;;;;;;;;5050060;28;20690;-71
2024/01/25 09:42:07;;;;;;;1.17;0.50;;;10.70;99.90;;;;;;5032366;28;20516;-71
2024/01/25 09:44:33;;;;;;;1.70;0.60;;;10.50;99.90;;;;;;5050369;28;20176;-71
2024/01/25 09:47:00;;;;;;;0.90;0.37;;;10.80;99.90;;;;;;5050566;28;20166;-71
2024/01/25 09:49:26;;;;;;;1.90;0.50;;;;;;;;;;5054021;28;20178;-71
2024/01/25 09:51:54;;;;;;;1.57;0.50;;;10.80;99.90;;;;;;5053877;28;20209;-71
2024/01/25 09:54:21;;;;;;;1.43;0.50;;;10.90;99.90;;;;;;5036120;28;20209;-72
2024/01/25 09:56:51;;;;;;;2.03;0.50;;;10.80;99.90;;;;;;5053727;28;20248;-72
2024/01/25 09:59:17;;;;;;;1.07;0.40;;;;;;;;;;5035909;28;20655;-72
2024/01/25 10:01:43;;;;;;;0.70;0.43;;;;;;;;;;5053647;28;20705;-72
2024/01/25 10:04:10;;;;;;;1.07;0.57;;;;;;;;;;5053597;28;20347;-72
2024/01/25 10:06:35;;;;;;;1.47;0.57;;;11.20;99.90;;;;;;5053716;28;20161;-72
2024/01/25 10:09:02;;;;;;;1.23;0.60;;;11.40;99.90;;;;;;5035643;28;20739;-71
2024/01/25 10:11:33;;;;;;;1.93;0.70;;;11.30;99.90;;;;;;5053470;28;20216;-71
2024/01/25 10:14:00;;;;;;;2.50;0.80;;;11.60;99.90;;;;;;5053394;28;20528;-71
2024/01/25 10:16:27;;;;;;;1.90;0.80;;;;;;;;;;5051157;28;20276;-71
2024/01/25 10:18:53;;;;;;;2.30;1.07;;;11.70;99.90;;;;;;5036415;28;20196;-71
2024/01/25 10:21:19;;;;;;;1.80;1.10;;;;;;;;;;5033549;28;20607;-71
2024/01/25 10:23:48;;;;;;;2.40;1.30;;;11.60;99.90;;;;;;5033401;28;20166;-71
2024/01/25 10:26:14;;;;;;;1.97;1.20;;;;;;;;;;5033226;28;20178;-71
2024/01/25 10:28:40;;;;;;;3.67;1.43;;;;;;;;;;5033193;28;20185;-71
2024/01/25 10:31:07;;;;;;;4.70;1.70;;;12.20;99.90;;;;;;5033005;28;20209;-71
2024/01/25 10:33:34;;;;;;;2.87;1.57;;;12.20;99.90;;;;;;5033230;28;20178;-72
2024/01/25 10:36:03;;;;;;;3.57;1.70;;;11.90;99.90;;;;;;5033227;28;20178;-71
2024/01/25 10:38:37;;;;;;;2.83;1.90;;;12.00;99.90;;;;;;5033481;28;20189;-71
2024/01/25 10:41:05;;;;;;;6.83;2.23;;;12.30;99.90;;;;;;5033122;28;20173;-72
2024/01/25 10:43:31;;;;;;;4.33;1.90;;;12.40;99.90;;;;;;5032954;28;20182;-72
2024/01/25 10:45:58;;;;;;;4.97;2.13;;;12.30;99.90;;;;;;5033058;28;20704;-71
2024/01/25 10:48:28;;;;;;;3.00;1.80;;;12.40;99.90;;;;;;5032958;28;20178;-86
2024/01/25 10:50:55;;;;;;;2.50;2.17;;;12.60;99.90;;;;;;5015256;28;20731;-83
2024/01/25 10:53:21;;;;;;;5.20;2.30;;;12.50;99.90;;;;;;5032995;28;20170;-82
2024/01/25 10:55:48;;;;;;;5.37;2.30;;;12.70;99.90;;;;;;5032950;28;20178;-80
2024/01/25 10:58:15;;;;;;;3.97;2.17;;;12.60;99.90;;;;;;5032294;28;20166;-80
2024/01/25 11:00:41;;;;;;;8.17;2.30;;;;;;;;;;5032072;28;20173;-80
2024/01/25 11:03:08;;;;;;;3.80;1.97;;;12.70;99.90;;;;;;5032793;28;20229;-81
2024/01/25 11:05:33;;;;;;;5.07;2.30;;;12.90;99.90;;;;;;5032811;28;20180;-81
2024/01/25 11:08:00;;;;;;;5.10;2.07;;;12.80;99.90;;;;;;5032675;28;20170;-81
2024/01/25 11:10:27;;;;;;;3.60;2.07;;;12.90;99.90;;;;;;5032653;28;20202;-81
2024/01/25 11:12:58;;;;;;;4.37;2.03;;;13.00;99.90;;;;;;5032459;28;20204;-81
2024/01/25 11:15:35;;;;;;;3.73;2.10;;;13.00;99.90;;;;;;5032477;28;20655;-81
2024/01/25 11:18:02;;;;;;;2.87;1.83;;;13.00;99.90;;;;;;5032656;28;20280;-81
2024/01/25 11:20:28;;;;;;;4.30;2.20;;;13.10;99.90;;;;;;5031238;28;20182;-81
2024/01/25 11:23:06;;;;;;;5.47;2.28;;;13.60;99.90;;;;;;5035496;28;20175;-80
2024/01/25 11:25:33;;;;;;;4.67;2.30;;;14.10;99.90;;;;;;5044100;28;20187;-86
2024/01/25 11:28:03;;;;;;;2.95;2.08;;;14.50;99.90;;;;;;5053133;28;20170;-86
2024/01/25 11:30:32;;;;;;;8.05;2.63;;;14.50;99.90;;;;;;5035182;28;20173;-84
2024/01/25 11:32:58;;;;;;;6.53;2.53;;;;;;;;;;5053298;28;20178;-88
2024/01/25 11:35:24;;;;;;;5.63;2.40;;;14.10;99.90;;;;;;5036182;28;20169;-88
2024/01/25 11:37:53;;;;;;;4.70;2.22;;;14.10;99.90;;;;;;5054529;28;20512;-90
2024/01/25 11:40:19;;;;;;;3.25;2.00;;;13.80;99.90;;;;;;5053881;28;20226;-87
2024/01/25 11:42:50;;;;;;;8.77;2.30;;;13.30;99.90;;;;;;5052682;28;20708;-86
2024/01/25 11:45:16;;;;;;;8.45;2.00;;;13.30;99.90;;;;;;5052599;28;20252;-86
2024/01/25 11:47:43;;;;;;;11.80;2.38;;;13.40;99.90;;;;;;5052382;28;20181;-86
2024/01/25 11:50:10;;;;;;;6.43;2.30;;;13.40;99.90;;;;;;5051831;28;20184;-84
2024/01/25 11:52:37;;;;;;;8.40;2.10;;;;;;;;;;5051347;28;20691;-83
2024/01/25 11:55:04;;;;;;;3.13;1.75;;;13.40;99.90;;;;;;5051720;28;20185;-84
2024/01/25 11:57:47;;;;;;;6.33;2.33;;;13.70;99.90;;;;;;5052069;28;20180;-86
2024/01/25 12:00:15;;;;;;;6.65;2.38;;;13.30;99.90;;;;;;5034036;28;20175;-83
2024/01/25 12:02:41;;;;;;;4.35;1.70;;;13.20;99.90;;;;;;5051646;28;20205;-83
2024/01/25 12:05:09;;;;;;;4.13;1.93;;;13.20;99.90;;;;;;5051570;28;20252;-83
2024/01/25 12:07:36;;;;;;;4.93;2.23;;;13.50;99.90;;;;;;5052027;28;20173;-81
2024/01/25 12:10:06;;;;;;;5.47;1.87;;;13.20;99.90;;;;;;5051307;28;20177;-83
2024/01/25 12:12:33;;;;;;;6.63;1.90;;;;;;;;;;5051436;28;20216;-82
2024/01/25 12:14:59;;;;;;;7.53;2.20;;;13.20;99.90;;;;;;5051580;28;20177;-86
2024/01/25 12:17:29;;;;;;;5.97;2.00;;;13.20;99.90;;;;;;5051853;28;20170;-82
2024/01/25 12:19:59;;;;;;;2.90;1.80;;;13.40;99.90;;;;;;5049640;28;20223;-81
2024/01/25 12:22:27;;;;;;;3.78;1.95;;;13.40;99.90;;;;;;5032981;28;20640;-80
2024/01/25 12:24:57;;;;;;;3.63;1.90;;;13.50;99.90;;;;;;5051120;28;20169;-82
2024/01/25 12:27:24;;;;;;;5.50;2.08;;;13.90;99.90;;;;;;5051651;28;20672;-83
2024/01/25 12:29:56;;;;;;;3.28;2.00;;;14.10;99.90;;;;;;5053244;28;20168;-82
2024/01/25 12:32:22;;;;;;;4.35;2.00;;;14.00;99.90;;;;;;5040642;28;20236;-82
2024/01/25 12:35:00;;;;;;;7.00;2.10;;;14.00;99.90;;;;;;5022526;28;20178;-82
2024/01/25 12:37:27;;;;;;;6.30;2.10;;;13.70;99.90;;;;;;5037390;28;20166;-83
2024/01/25 12:39:53;;;;;;;4.32;1.92;;;13.80;99.90;;;;;;5030169;28;20243;-85
2024/01/25 12:42:22;;;;;;;3.80;1.90;;;12.20;99.90;;;;;;5034701;28;20162;-83
2024/01/25 12:44:50;;;;;;;4.00;1.73;;;14.10;99.90;;;;;;5038350;28;20165;-83
2024/01/25 12:47:16;;;;;;;5.78;1.95;;;;;;;;;;5035138;28;20169;-82
2024/01/25 12:49:43;;;;;;;4.10;2.13;;;13.90;99.90;;;;;;5031796;28;20253;-82
2024/01/25 12:52:10;;;;;;;3.10;1.70;;;13.90;99.90;;;;;;5031336;28;20479;-83
2024/01/25 12:54:37;;;;;;;2.65;1.60;;;;;;;;;;5031091;28;20166;-84
2024/01/25 12:57:03;;;;;;;3.40;1.80;;;13.70;99.90;;;;;;5031617;28;20251;-87
2024/01/25 12:59:29;;;;;;;3.40;1.77;;;13.40;99.90;;;;;;5031620;28;20178;-81
2024/01/25 13:01:55;;;;;;;4.60;1.70;;;13.60;99.90;;;;;;5013673;28;20173;-83
2024/01/25 13:04:22;;;;;;;2.60;1.70;;;;;;;;;;5030102;28;20218;-81
2024/01/25 13:06:52;;;;;;;3.03;1.80;;;13.50;99.90;;;;;;5030038;28;20260;-81
2024/01/25 13:09:18;;;;;;;3.83;1.98;;;;;;;;;;5030894;28;20710;-80
2024/01/25 13:11:44;;;;;;;3.38;1.88;;;;;;;;;;5029497;28;20627;-81
2024/01/25 13:14:09;;;;;;;3.75;1.80;;;13.80;99.90;;;;;;5029692;28;20906;-85
2024/01/25 13:16:36;;;;;;;3.10;1.87;;;;;;;;;;5031210;28;20178;-82
2024/01/25 13:19:01;;;;;;;3.05;1.92;;;13.60;99.90;;;;;;5030912;28;20166;-83
2024/01/25 13:21:27;;;;;;;2.97;1.80;;;;;;;;;;5013077;28;20193;-83